Aérodrome :
LOGIN :

S'inscrire | Disclaimer

   EN    FR    IT 

 










Légende :    VFR   VFR Marginal   IFR   IFR Intensif   IFR Très Intensif
Visi : 
Plafond : 
>= 8 km
>= 3000ft
5 à 8 km
1000 à 3000 ft
1500m à 5 km
500 à 1000 ft
800 à 1500m
200 à 500 ft
< 800m
< 200 ft
Symboles :   Orages  Brouillard  Fortes neiges  Fortes précipitations  Vent > 20 kt
SIGMETs :   Divers  Orages  Givrage  Turbulence  Onde Orograph.  Cendres Volcan.






- Altitude de l'aérodrome : 124 ft
- Code IATA : RNS


LFRN - Rennes

DERNIER METAR :
  • 201030Z AUTO 21018KT 9999 FEW020 SCT037 BKN046 11/08 Q1018 TEMPO 4000 RA BKN012 BECMG 21015G30KT

METARs EXPIRÉS :
  • 201000Z AUTO 20013KT CAVOK 12/07 Q1018 TEMPO 4000 RA BKN012 BECMG 21015G30KT
  • 200930Z AUTO 22016G28KT 190V250 9999 FEW028 SCT035 OVC048 11/06 Q1018 TEMPO 4000 RA BKN012
  • 200900Z AUTO 21012KT 9999 FEW036 OVC046 11/06 Q1018 TEMPO 4000 RA BKN012 BECMG 21015G30KT
  • 200830Z AUTO 19011KT 9999 OVC048 11/06 Q1018 TEMPO 4000 RA BKN012 BECMG 21015G30KT
  • 200800Z AUTO 20011KT 170V230 9999 FEW029 OVC047 10/06 Q1018 TEMPO 4000 RA BKN012

TAF TAF LFRN
Valide du 20 à 06h jusqu'au 21 à 06h UTC


200500Z 2006/2106 20010KT 9999 BKN030
PROB40
TEMPO 2006/2014 4000 RA BKN012
BECMG 2010/2012 21015G30KT
TEMPO 2014/2016 VRB20G40KT 3000 RA BKN007
BECMG 2014/2016 31015G25KT
BECMG 2016/2018 28010KT
BECMG 2022/2024 VRB05KT
TEMPO 2103/2106 3000 BR
ATIS : +33 2 99 67 72 50



MET'MAP, la Météo Aéronautique d'un coup d'oeil ! - Copyright ORBIFLY Décembre 2007 - Disclaimer

ORBIFLY MET'MAP TEAM :

Programmation & Développement : Alexandra Zaïnal
Sur une idée originale de : Baudouin d'Aumeries
Assistance à la programmation : Marc-Olivier Méhu
Soutien technique & logistique : Manuel Goepfert

Contact : metmap@orbifly.com




SOURCES & CREDITS :

   NOAA